createdAt,value
2023-02-11T00:03:36.103Z,1037.4
2023-02-11T00:18:32.337Z,1037.3
2023-02-11T00:33:28.537Z,1037.2
2023-02-11T00:48:24.692Z,1037
2023-02-11T01:03:20.927Z,1036.9
2023-02-11T01:18:17.070Z,1037
2023-02-11T01:33:12.769Z,1037
2023-02-11T01:48:08.210Z,1037
2023-02-11T02:03:04.302Z,1036.9
2023-02-11T02:18:00.787Z,1037.1
2023-02-11T02:32:57.282Z,1037.1
2023-02-11T02:47:53.639Z,1036.9
2023-02-11T03:02:49.925Z,1036.9
2023-02-11T03:17:46.199Z,1036.6
2023-02-11T03:32:42.433Z,1036.5
2023-02-11T03:47:38.544Z,1036.7
2023-02-11T04:02:34.523Z,1036.6
2023-02-11T04:17:30.315Z,1036.4
2023-02-11T04:32:26.448Z,1036.5
2023-02-11T04:47:21.899Z,1036.3
2023-02-11T05:02:18.156Z,1036.3
2023-02-11T05:17:14.014Z,1036.3
2023-02-11T05:32:10.606Z,1036.4
2023-02-11T05:47:07.095Z,1036.4
2023-02-11T06:02:03.854Z,1036.3
2023-02-11T06:17:00.203Z,1036.1
2023-02-11T06:31:56.618Z,1036
2023-02-11T06:46:52.776Z,1036
2023-02-11T07:01:49.381Z,1036.3
2023-02-11T07:16:45.299Z,1036.5
2023-02-11T07:31:42.082Z,1036.5
2023-02-11T07:46:38.215Z,1036.5
2023-02-11T08:01:34.941Z,1036.6
2023-02-11T08:16:31.523Z,1036.8
2023-02-11T08:31:27.732Z,1036.8
2023-02-11T08:46:24.117Z,1036.9
2023-02-11T09:01:22.687Z,1036.9
2023-02-11T09:16:16.930Z,1037
2023-02-11T09:31:13.672Z,1037.1
2023-02-11T09:46:09.968Z,1037.2
2023-02-11T10:01:06.784Z,1037.2
2023-02-11T10:16:02.949Z,1037.3
2023-02-11T10:30:59.324Z,1037.4
2023-02-11T10:45:55.773Z,1037.3
2023-02-11T11:00:52.302Z,1037.3
2023-02-11T11:15:48.567Z,1037.3
2023-02-11T11:30:44.572Z,1037.1
2023-02-11T11:45:40.816Z,1037
2023-02-11T12:00:37.107Z,1036.9
2023-02-11T12:15:33.335Z,1036.7
2023-02-11T12:30:30.157Z,1037
2023-02-11T12:45:26.337Z,1036.9
2023-02-11T13:00:22.596Z,1036.9
2023-02-11T13:15:18.448Z,1036.9
2023-02-11T13:30:14.120Z,1036.8
2023-02-11T13:45:10.098Z,1036.7
2023-02-11T14:00:06.592Z,1036.6
2023-02-11T14:15:04.875Z,1036.7
2023-02-11T14:29:59.151Z,1036.8
2023-02-11T14:44:55.776Z,1036.9
2023-02-11T14:59:51.800Z,1036.8
2023-02-11T15:14:47.907Z,1036.9
2023-02-11T15:29:43.933Z,1037
2023-02-11T15:44:40.022Z,1037.1
2023-02-11T15:59:36.611Z,1037.1
2023-02-11T16:14:32.445Z,1037.2
2023-02-11T16:29:28.780Z,1037.3
2023-02-11T16:44:24.746Z,1037.6
2023-02-11T16:59:20.966Z,1037.7
2023-02-11T17:14:16.805Z,1037.9
2023-02-11T17:29:13.128Z,1038
2023-02-11T17:44:09.525Z,1038.2
2023-02-11T17:59:05.517Z,1038.3
2023-02-11T18:14:01.912Z,1038.4
2023-02-11T18:28:58.062Z,1038.4
2023-02-11T18:43:53.971Z,1038.5
2023-02-11T18:58:50.042Z,1038.4
2023-02-11T19:13:46.546Z,1038.5
2023-02-11T19:28:42.639Z,1038.5
2023-02-11T19:43:38.698Z,1038.5
2023-02-11T19:58:34.709Z,1038.9
2023-02-11T20:13:30.774Z,1038.8
2023-02-11T20:28:27.484Z,1038.9
2023-02-11T20:43:22.880Z,1039
2023-02-11T20:58:18.712Z,1039
2023-02-11T21:13:15.326Z,1039.2
2023-02-11T21:28:10.877Z,1039.1
2023-02-11T21:43:06.988Z,1039.2
2023-02-11T21:58:03.350Z,1039.1
2023-02-11T22:12:59.549Z,1039.3
2023-02-11T22:27:54.924Z,1039.5
2023-02-11T22:42:51.077Z,1039.6
2023-02-11T22:57:47.350Z,1039.6
2023-02-11T23:12:43.434Z,1039.8
2023-02-11T23:27:39.784Z,1039.8
2023-02-11T23:42:35.916Z,1039.8
2023-02-11T23:57:32.700Z,1039.9
